createdAt,value
2022-09-25T00:00:06.476Z,101527.78
2022-09-25T00:02:38.841Z,101522.50
2022-09-25T00:05:09.829Z,101526.94
2022-09-25T00:07:39.614Z,101526.97
2022-09-25T00:10:10.547Z,101527.91
2022-09-25T00:12:40.212Z,101525.25
2022-09-25T00:15:11.137Z,101523.50
2022-09-25T00:17:43.526Z,101530.56
2022-09-25T00:20:10.789Z,101530.56
2022-09-25T00:22:42.262Z,101527.94
2022-09-25T00:25:15.613Z,101523.59
2022-09-25T00:27:48.517Z,101515.56
2022-09-25T00:30:18.199Z,101522.56
2022-09-25T00:32:50.562Z,101526.84
2022-09-25T00:35:20.454Z,101527.75
2022-09-25T00:37:50.120Z,101518.94
2022-09-25T00:40:20.009Z,101531.19
2022-09-25T00:42:49.756Z,101528.47
2022-09-25T00:45:22.503Z,101521.44
2022-09-25T00:48:02.015Z,101523.19
2022-09-25T00:50:37.053Z,101515.28
2022-09-25T00:53:12.041Z,101515.28
2022-09-25T00:55:44.557Z,101515.25
2022-09-25T00:58:17.008Z,101514.31
2022-09-25T01:00:47.045Z,101516.03
2022-09-25T01:03:20.287Z,101508.91
2022-09-25T01:05:51.512Z,101515.03
2022-09-25T01:08:24.780Z,101515.88
2022-09-25T01:10:54.722Z,101522.84
2022-09-25T01:13:24.657Z,101520.16
2022-09-25T01:16:00.232Z,101523.66
2022-09-25T01:18:45.738Z,101521.91
2022-09-25T01:21:26.577Z,101522.69
2022-09-25T01:24:34.772Z,101518.28
2022-09-25T01:27:26.121Z,101521.75
2022-09-25T01:30:06.398Z,101519.06
2022-09-25T01:32:46.263Z,101523.41
2022-09-25T01:35:21.221Z,101521.47
2022-09-25T01:37:57.760Z,101516.94
2022-09-25T01:40:33.704Z,101523.00
2022-09-25T01:43:10.550Z,101522.22
2022-09-25T01:45:49.702Z,101523.00
2022-09-25T01:48:25.238Z,101516.88
2022-09-25T01:51:00.930Z,101522.22
2022-09-25T01:53:35.347Z,101511.50
2022-09-25T01:56:10.957Z,101511.50
2022-09-25T01:58:45.915Z,101506.94
2022-09-25T02:01:23.464Z,101511.34
2022-09-25T02:03:58.028Z,101503.34
2022-09-25T02:06:28.313Z,101513.09
2022-09-25T02:09:01.313Z,101512.28
2022-09-25T02:11:38.002Z,101507.03
2022-09-25T02:14:13.809Z,101498.28
2022-09-25T02:16:46.167Z,101498.28
2022-09-25T02:19:45.652Z,101502.69
2022-09-25T02:22:22.521Z,101499.91
2022-09-25T02:24:59.284Z,101501.66
2022-09-25T02:27:30.963Z,101505.16
2022-09-25T02:30:01.603Z,101500.66
2022-09-25T02:32:35.853Z,101498.84
2022-09-25T02:35:05.991Z,101495.31
2022-09-25T02:37:35.703Z,101497.06
2022-09-25T02:40:07.525Z,101491.72
2022-09-25T02:42:45.521Z,101498.66
2022-09-25T02:45:36.560Z,101502.00
2022-09-25T02:48:16.580Z,101500.94
2022-09-25T02:50:54.685Z,101500.03
2022-09-25T02:53:32.642Z,101498.31
2022-09-25T02:56:06.822Z,101505.47
2022-09-25T02:58:41.604Z,101502.81
2022-09-25T03:01:15.613Z,101505.47
2022-09-25T03:03:50.392Z,101509.91
2022-09-25T03:06:21.162Z,101508.09
2022-09-25T03:08:53.143Z,101509.06
2022-09-25T03:11:24.333Z,101511.63
2022-09-25T03:13:59.143Z,101512.50
2022-09-25T03:16:37.293Z,101506.25
2022-09-25T03:19:10.204Z,101504.47
2022-09-25T03:21:39.881Z,101512.28
2022-09-25T03:24:09.919Z,101507.06
2022-09-25T03:26:40.694Z,101502.66
2022-09-25T03:29:10.539Z,101497.44
2022-09-25T03:31:41.297Z,101508.88
2022-09-25T03:34:14.736Z,101505.25
2022-09-25T03:36:47.623Z,101507.91
2022-09-25T03:39:18.860Z,101507.84
2022-09-25T03:41:48.737Z,101514.00
2022-09-25T03:44:18.550Z,101503.44
2022-09-25T03:46:48.225Z,101495.53
2022-09-25T03:49:20.557Z,101498.06
2022-09-25T03:51:50.257Z,101498.06
2022-09-25T03:54:20.048Z,101493.66
2022-09-25T03:56:49.762Z,101501.50
2022-09-25T03:59:19.620Z,101493.59
2022-09-25T04:01:49.888Z,101499.75
2022-09-25T04:04:22.794Z,101491.75
2022-09-25T04:06:52.528Z,101493.41
2022-09-25T04:09:22.205Z,101491.72
2022-09-25T04:11:52.101Z,101489.88
2022-09-25T04:14:21.823Z,101489.00
2022-09-25T04:16:52.121Z,101485.41
2022-09-25T04:19:24.423Z,101475.69
2022-09-25T04:21:54.160Z,101481.78
2022-09-25T04:24:36.254Z,101479.94
2022-09-25T04:27:06.064Z,101479.94
2022-09-25T04:29:35.725Z,101469.41
2022-09-25T04:32:17.945Z,101482.56
2022-09-25T04:34:50.261Z,101477.22
2022-09-25T04:37:22.922Z,101471.03
2022-09-25T04:39:52.625Z,101467.44
2022-09-25T04:42:24.807Z,101467.38
2022-09-25T04:44:55.828Z,101469.09
2022-09-25T04:47:26.537Z,101471.66
2022-09-25T04:49:59.289Z,101465.44
2022-09-25T04:52:33.302Z,101465.34
2022-09-25T04:55:04.343Z,101462.63
2022-09-25T04:57:57.198Z,101466.13
2022-09-25T05:00:24.752Z,101462.59
2022-09-25T05:02:55.088Z,101466.06
2022-09-25T05:05:29.388Z,101464.28
2022-09-25T05:08:00.793Z,101468.59
2022-09-25T05:10:32.502Z,101472.09
2022-09-25T05:13:03.751Z,101474.66
2022-09-25T05:15:35.957Z,101474.63
2022-09-25T05:18:07.681Z,101477.19
2022-09-25T05:20:40.863Z,101477.19
2022-09-25T05:23:11.118Z,101479.81
2022-09-25T05:25:40.995Z,101481.59
2022-09-25T05:28:11.732Z,101486.00
2022-09-25T05:30:41.861Z,101488.63
2022-09-25T05:33:11.606Z,101486.84
2022-09-25T05:35:43.886Z,101481.50
2022-09-25T05:38:13.654Z,101479.66
2022-09-25T05:40:43.524Z,101475.22
2022-09-25T05:43:13.488Z,101478.69
2022-09-25T05:45:43.238Z,101495.47
2022-09-25T05:48:13.178Z,101479.56
2022-09-25T05:50:45.447Z,101483.94
2022-09-25T05:53:15.120Z,101482.13
2022-09-25T05:55:44.948Z,101480.38
2022-09-25T05:58:14.912Z,101488.28
2022-09-25T06:00:44.709Z,101483.06
2022-09-25T06:03:14.438Z,101490.22
2022-09-25T06:05:47.082Z,101488.53
2022-09-25T06:08:17.417Z,101482.41
2022-09-25T06:10:47.122Z,101482.47
2022-09-25T06:13:16.802Z,101486.94
2022-09-25T06:15:46.589Z,101488.72
2022-09-25T06:18:16.415Z,101487.06
2022-09-25T06:20:48.785Z,101479.25
2022-09-25T06:23:19.024Z,101479.38
2022-09-25T06:25:48.880Z,101479.53
2022-09-25T06:28:18.676Z,101471.78
2022-09-25T06:30:48.505Z,101475.53
2022-09-25T06:33:18.308Z,101469.56
2022-09-25T06:35:51.862Z,101476.84
2022-09-25T06:38:21.619Z,101482.34
2022-09-25T06:40:51.471Z,101486.97
2022-09-25T06:43:21.516Z,101483.72
2022-09-25T06:45:51.453Z,101479.56
2022-09-25T06:48:22.271Z,101479.81
2022-09-25T06:50:57.593Z,101474.81
2022-09-25T06:53:28.757Z,101479.47
2022-09-25T06:56:01.027Z,101484.03
2022-09-25T06:58:32.062Z,101475.34
2022-09-25T07:01:05.121Z,101476.19
2022-09-25T07:03:47.440Z,101475.44
2022-09-25T07:06:21.866Z,101480.75
2022-09-25T07:08:52.630Z,101481.72
2022-09-25T07:11:24.113Z,101481.78
2022-09-25T07:13:55.262Z,101478.38
2022-09-25T07:16:26.960Z,101486.44
2022-09-25T07:18:58.613Z,101483.88
2022-09-25T07:21:32.556Z,101484.84
2022-09-25T07:24:02.425Z,101485.84
2022-09-25T07:26:34.740Z,101486.75
2022-09-25T07:29:08.046Z,101487.72
2022-09-25T07:31:38.990Z,101493.06
2022-09-25T07:34:09.600Z,101492.31
2022-09-25T07:36:42.878Z,101491.53
2022-09-25T07:39:18.192Z,101482.81
2022-09-25T07:41:48.644Z,101482.91
2022-09-25T07:44:28.390Z,101482.16
2022-09-25T07:47:01.029Z,101475.19
2022-09-25T07:49:30.748Z,101480.59
2022-09-25T07:52:03.764Z,101486.94
2022-09-25T07:54:34.783Z,101482.59
2022-09-25T07:57:04.620Z,101481.78
2022-09-25T07:59:34.379Z,101486.28
2022-09-25T08:02:05.073Z,101482.84
2022-09-25T08:04:34.850Z,101482.84
2022-09-25T08:07:07.513Z,101489.97
2022-09-25T08:09:37.237Z,101490.84
2022-09-25T08:12:07.806Z,101483.84
2022-09-25T08:14:37.501Z,101490.91
2022-09-25T08:17:07.185Z,101489.13
2022-09-25T08:19:36.892Z,101482.09
2022-09-25T08:22:10.313Z,101490.09
2022-09-25T08:24:40.382Z,101488.44
2022-09-25T08:27:10.226Z,101486.72
2022-09-25T08:29:39.924Z,101487.59
2022-09-25T08:32:10.084Z,101486.72
2022-09-25T08:34:41.470Z,101484.09
2022-09-25T08:37:14.651Z,101485.97
2022-09-25T08:39:44.384Z,101483.34
2022-09-25T08:42:20.936Z,101487.84
2022-09-25T08:45:21.539Z,101487.94
2022-09-25T08:48:16.680Z,101489.94
2022-09-25T08:50:46.502Z,101497.44
2022-09-25T08:53:24.367Z,101493.50
2022-09-25T08:56:07.101Z,101493.03
2022-09-25T08:58:42.833Z,101492.47
2022-09-25T09:01:22.497Z,101492.78
2022-09-25T09:03:58.135Z,101494.81
2022-09-25T09:06:30.840Z,101505.66
2022-09-25T09:09:09.566Z,101499.97
2022-09-25T09:11:44.404Z,101509.00
2022-09-25T09:14:18.657Z,101497.84
2022-09-25T09:16:53.184Z,101496.44
2022-09-25T09:19:22.993Z,101496.66
2022-09-25T09:22:00.975Z,101494.19
2022-09-25T09:24:43.501Z,101492.47
2022-09-25T09:27:26.473Z,101495.97
2022-09-25T09:30:12.126Z,101492.34
2022-09-25T09:32:56.480Z,101492.16
2022-09-25T09:35:34.235Z,101492.84
2022-09-25T09:38:15.166Z,101492.56
2022-09-25T09:41:04.821Z,101492.44
2022-09-25T09:43:56.495Z,101487.13
2022-09-25T09:46:37.278Z,101493.09
2022-09-25T09:49:16.366Z,101485.75
2022-09-25T09:51:51.749Z,101485.63
2022-09-25T09:54:27.852Z,101482.81
2022-09-25T09:57:02.493Z,101487.97
2022-09-25T09:59:40.202Z,101494.00
2022-09-25T10:02:22.626Z,101480.66
2022-09-25T10:04:53.746Z,101480.59
2022-09-25T10:07:25.602Z,101478.78
2022-09-25T10:09:58.286Z,101476.13
2022-09-25T10:12:34.688Z,101471.84
2022-09-25T10:15:07.965Z,101473.69
2022-09-25T10:17:39.010Z,101467.56
2022-09-25T10:20:23.329Z,101470.31
2022-09-25T10:22:58.671Z,101467.78
2022-09-25T10:25:40.449Z,101475.16
2022-09-25T10:28:29.360Z,101471.94
2022-09-25T10:31:01.059Z,101470.34
2022-09-25T10:33:33.511Z,101480.34
2022-09-25T10:36:03.517Z,101466.34
2022-09-25T10:38:42.212Z,101468.22
2022-09-25T10:41:15.222Z,101460.31
2022-09-25T10:44:00.223Z,101475.56
2022-09-25T10:46:45.021Z,101478.34
2022-09-25T10:49:35.299Z,101465.06
2022-09-25T10:52:08.201Z,101469.47
2022-09-25T10:54:44.358Z,101474.75
2022-09-25T10:57:25.647Z,101474.78
2022-09-25T10:59:59.599Z,101462.50
2022-09-25T11:02:38.193Z,101457.31
2022-09-25T11:05:10.193Z,101463.56
2022-09-25T11:07:40.246Z,101459.13
2022-09-25T11:10:23.128Z,101460.91
2022-09-25T11:12:54.570Z,101464.28
2022-09-25T11:15:29.537Z,101463.84
2022-09-25T11:18:00.265Z,101462.38
2022-09-25T11:20:32.901Z,101460.06
2022-09-25T11:23:24.275Z,101463.06
2022-09-25T11:26:00.377Z,101469.69
2022-09-25T11:28:37.845Z,101466.81
2022-09-25T11:31:18.446Z,101460.56
2022-09-25T11:33:54.173Z,101456.22
2022-09-25T11:36:30.396Z,101454.56
2022-09-25T11:39:18.586Z,101448.56
2022-09-25T11:41:53.459Z,101447.03
2022-09-25T11:44:32.254Z,101444.56
2022-09-25T11:47:11.213Z,101444.69
2022-09-25T11:49:44.884Z,101443.06
2022-09-25T11:52:37.492Z,101432.59
2022-09-25T11:55:34.745Z,101430.91
2022-09-25T11:58:26.450Z,101430.91
2022-09-25T12:01:03.421Z,101425.66
2022-09-25T12:03:55.844Z,101432.88
2022-09-25T12:06:49.199Z,101421.50
2022-09-25T12:09:37.228Z,101419.00
2022-09-25T12:12:15.698Z,101423.53
2022-09-25T12:14:58.560Z,101421.00
2022-09-25T12:17:38.830Z,101413.97
2022-09-25T12:20:20.955Z,101410.53
2022-09-25T12:23:00.842Z,101402.63
2022-09-25T12:25:44.298Z,101404.47
2022-09-25T12:28:22.198Z,101397.44
2022-09-25T12:31:05.749Z,101392.22
2022-09-25T12:33:42.456Z,101390.56
2022-09-25T12:36:20.760Z,101388.78
2022-09-25T12:38:55.910Z,101387.03
2022-09-25T12:41:33.502Z,101385.34
2022-09-25T12:44:08.075Z,101377.47
2022-09-25T12:46:45.382Z,101374.84
2022-09-25T12:49:20.678Z,101370.44
2022-09-25T12:51:55.232Z,101367.81
2022-09-25T12:54:30.658Z,101366.03
2022-09-25T12:57:05.189Z,101366.06
2022-09-25T12:59:46.022Z,101372.22
2022-09-25T13:02:22.841Z,101360.78
2022-09-25T13:05:04.613Z,101360.81
2022-09-25T13:07:45.348Z,101367.94
2022-09-25T13:10:26.657Z,101362.69
2022-09-25T13:13:00.702Z,101360.13
2022-09-25T13:15:35.369Z,101356.66
2022-09-25T13:18:18.639Z,101355.88
2022-09-25T13:20:53.837Z,101351.44
2022-09-25T13:23:35.777Z,101351.44
2022-09-25T13:26:13.697Z,101351.44
2022-09-25T13:28:52.855Z,101344.28
2022-09-25T13:31:27.452Z,101336.31
2022-09-25T13:34:05.484Z,101337.16
2022-09-25T13:36:40.844Z,101332.72
2022-09-25T13:39:34.130Z,101336.22
2022-09-25T13:42:08.804Z,101333.44
2022-09-25T13:44:52.706Z,101322.81
2022-09-25T13:47:46.673Z,101322.91
2022-09-25T13:50:41.626Z,101322.06
2022-09-25T13:53:37.188Z,101317.59
2022-09-25T13:56:46.024Z,101321.09
2022-09-25T13:59:40.834Z,101314.75
2022-09-25T14:02:40.550Z,101311.22
2022-09-25T14:05:10.701Z,101308.47
2022-09-25T14:07:44.429Z,101303.22
2022-09-25T14:10:15.062Z,101300.59
2022-09-25T14:12:50.390Z,101291.75
2022-09-25T14:15:26.976Z,101294.50
2022-09-25T14:17:59.069Z,101285.66
2022-09-25T14:20:38.640Z,101284.78
2022-09-25T14:23:16.866Z,101293.56
2022-09-25T14:25:47.806Z,101298.84
2022-09-25T14:28:24.385Z,101288.19
2022-09-25T14:31:06.370Z,101293.47
2022-09-25T14:34:14.810Z,101296.19
2022-09-25T14:37:01.819Z,101289.16
2022-09-25T14:39:35.609Z,101278.59
2022-09-25T14:42:44.089Z,101276.84
2022-09-25T14:45:45.738Z,101279.50
2022-09-25T14:48:20.404Z,101283.09
2022-09-25T14:50:54.570Z,101280.47
2022-09-25T14:53:30.989Z,101271.59
2022-09-25T14:56:09.579Z,101266.28
2022-09-25T14:58:42.861Z,101268.03
2022-09-25T15:01:23.606Z,101267.16
2022-09-25T15:03:53.538Z,101257.38
2022-09-25T15:06:29.052Z,101256.47
2022-09-25T15:08:59.046Z,101251.16
2022-09-25T15:11:30.266Z,101261.75
2022-09-25T15:14:13.729Z,101254.69
2022-09-25T15:16:59.213Z,101254.72
2022-09-25T15:19:33.238Z,101248.50
2022-09-25T15:22:03.611Z,101249.38
2022-09-25T15:24:37.002Z,101252.84
2022-09-25T15:27:09.165Z,101243.00
2022-09-25T15:29:40.985Z,101250.00
2022-09-25T15:32:20.306Z,101240.25
2022-09-25T15:34:50.416Z,101235.78
2022-09-25T15:37:26.479Z,101231.34
2022-09-25T15:39:57.016Z,101236.66
2022-09-25T15:42:26.705Z,101228.66
2022-09-25T15:45:01.104Z,101233.00
2022-09-25T15:47:58.068Z,101232.06
2022-09-25T15:50:30.662Z,101227.59
2022-09-25T15:53:03.392Z,101235.47
2022-09-25T15:55:34.281Z,101230.16
2022-09-25T15:58:13.642Z,101228.38
2022-09-25T16:01:10.045Z,101229.22
2022-09-25T16:04:04.660Z,101224.81
2022-09-25T16:06:41.038Z,101223.03
2022-09-25T16:09:24.057Z,101219.50
2022-09-25T16:11:53.885Z,101223.03
2022-09-25T16:14:29.533Z,101224.75
2022-09-25T16:17:00.357Z,101229.13
2022-09-25T16:19:37.523Z,101227.38
2022-09-25T16:22:23.464Z,101223.75
2022-09-25T16:24:55.415Z,101223.75
2022-09-25T16:27:29.583Z,101228.16
2022-09-25T16:30:04.378Z,101228.16
2022-09-25T16:32:34.974Z,101222.00
2022-09-25T16:35:07.965Z,101221.13
2022-09-25T16:37:39.042Z,101215.78
2022-09-25T16:40:24.937Z,101205.16
2022-09-25T16:42:57.582Z,101201.63
2022-09-25T16:45:31.785Z,101206.91
2022-09-25T16:48:04.354Z,101202.47
2022-09-25T16:50:43.993Z,101184.75
2022-09-25T16:53:14.993Z,101189.09
2022-09-25T16:55:53.565Z,101187.28
2022-09-25T16:58:24.054Z,101170.38
2022-09-25T17:00:54.138Z,101161.50
2022-09-25T17:03:24.240Z,101163.28
2022-09-25T17:05:58.232Z,101154.41
2022-09-25T17:08:28.155Z,101146.44
2022-09-25T17:10:57.916Z,101146.41
2022-09-25T17:13:31.205Z,101141.97
2022-09-25T17:16:01.091Z,101146.44
2022-09-25T17:18:30.886Z,101134.94
2022-09-25T17:21:06.149Z,101145.56
2022-09-25T17:23:36.208Z,101143.75
2022-09-25T17:26:08.343Z,101144.59
2022-09-25T17:28:38.113Z,101148.06
2022-09-25T17:31:08.125Z,101150.69
2022-09-25T17:33:37.902Z,101149.69
2022-09-25T17:36:13.520Z,101148.75
2022-09-25T17:38:43.351Z,101143.34
2022-09-25T17:41:22.388Z,101145.88
2022-09-25T17:43:52.753Z,101146.63
2022-09-25T17:46:23.495Z,101143.88
2022-09-25T17:48:54.865Z,101146.44
2022-09-25T17:51:29.705Z,101148.97
2022-09-25T17:54:02.343Z,101140.03
2022-09-25T17:56:34.329Z,101138.16
2022-09-25T17:59:05.280Z,101127.47
2022-09-25T18:01:39.433Z,101122.09
2022-09-25T18:04:22.256Z,101114.97
2022-09-25T18:06:55.381Z,101120.19
2022-09-25T18:09:25.130Z,101117.44
2022-09-25T18:11:54.806Z,101112.94
2022-09-25T18:14:24.736Z,101109.34
2022-09-25T18:16:54.409Z,101107.53
2022-09-25T18:19:36.522Z,101101.31
2022-09-25T18:22:22.045Z,101095.13
2022-09-25T18:24:56.433Z,101086.25
2022-09-25T18:27:27.957Z,101093.31
2022-09-25T18:29:58.381Z,101087.91
2022-09-25T18:32:28.263Z,101079.00
2022-09-25T18:34:57.967Z,101081.56
2022-09-25T18:37:30.366Z,101078.78
2022-09-25T18:40:00.116Z,101070.78
2022-09-25T18:42:29.925Z,101075.09
2022-09-25T18:45:00.389Z,101080.28
2022-09-25T18:47:30.769Z,101073.06
2022-09-25T18:50:00.481Z,101073.00
2022-09-25T18:52:32.774Z,101068.44
2022-09-25T18:55:03.080Z,101063.06
2022-09-25T18:57:36.275Z,101055.91
2022-09-25T19:00:09.488Z,101054.91
2022-09-25T19:02:41.101Z,101048.69
2022-09-25T19:05:12.122Z,101049.50
2022-09-25T19:07:44.439Z,101046.78
2022-09-25T19:10:14.146Z,101044.09
2022-09-25T19:12:43.886Z,101040.47
2022-09-25T19:15:13.996Z,101029.81
2022-09-25T19:17:43.755Z,101028.88
2022-09-25T19:20:13.682Z,101034.16
2022-09-25T19:22:45.989Z,101035.94
2022-09-25T19:25:20.111Z,101020.88
2022-09-25T19:27:51.957Z,101027.88
2022-09-25T19:30:21.717Z,101024.34
2022-09-25T19:32:51.601Z,101020.88
2022-09-25T19:35:21.434Z,101015.66
2022-09-25T19:37:54.086Z,101012.13
2022-09-25T19:40:36.249Z,101003.34
2022-09-25T19:43:06.370Z,101008.63
2022-09-25T19:45:37.328Z,101006.91
2022-09-25T19:48:07.344Z,101001.63
2022-09-25T19:50:37.185Z,100996.34
2022-09-25T19:53:09.581Z,100987.47
2022-09-25T19:55:41.063Z,100987.47
2022-09-25T19:58:10.980Z,100980.41
2022-09-25T20:00:43.905Z,100974.25
2022-09-25T20:03:14.252Z,100974.25
2022-09-25T20:05:44.874Z,100977.81
2022-09-25T20:08:17.501Z,100967.25
2022-09-25T20:10:47.417Z,100974.25
2022-09-25T20:13:17.478Z,100970.63
2022-09-25T20:15:50.233Z,100963.50
2022-09-25T20:18:20.348Z,100967.91
2022-09-25T20:20:50.103Z,100966.97
2022-09-25T20:23:22.422Z,100977.53
2022-09-25T20:25:52.306Z,100979.25
2022-09-25T20:28:22.405Z,100973.13
2022-09-25T20:30:52.176Z,100963.34
2022-09-25T20:33:21.931Z,100965.09
2022-09-25T20:35:51.686Z,100970.38
2022-09-25T20:38:25.256Z,100970.34
2022-09-25T20:40:55.577Z,100965.91
2022-09-25T20:43:26.025Z,100972.09
2022-09-25T20:46:01.225Z,100961.50
2022-09-25T20:48:31.094Z,100957.91
2022-09-25T20:51:00.949Z,100948.25
2022-09-25T20:53:33.441Z,100945.59
2022-09-25T20:56:06.958Z,100952.66
2022-09-25T20:58:37.209Z,100944.66
2022-09-25T21:01:08.801Z,100942.06
2022-09-25T21:03:41.413Z,100927.06
2022-09-25T21:06:14.509Z,100934.13
2022-09-25T21:08:46.945Z,100932.34
2022-09-25T21:11:16.620Z,100927.97
2022-09-25T21:13:46.374Z,100922.63
2022-09-25T21:16:17.738Z,100920.88
2022-09-25T21:18:47.511Z,100919.09
2022-09-25T21:21:18.113Z,100910.28
2022-09-25T21:23:51.849Z,100905.84
2022-09-25T21:26:21.762Z,100895.28
2022-09-25T21:28:53.906Z,100894.38
2022-09-25T21:31:25.720Z,100886.50
2022-09-25T21:33:56.145Z,100879.41
2022-09-25T21:36:26.585Z,100884.72
2022-09-25T21:38:59.067Z,100880.28
2022-09-25T21:41:33.336Z,100875.84
2022-09-25T21:44:05.329Z,100877.59
2022-09-25T21:46:36.174Z,100867.03
2022-09-25T21:49:08.854Z,100858.19
2022-09-25T21:51:41.070Z,100854.63
2022-09-25T21:54:14.189Z,100853.72
2022-09-25T21:56:44.578Z,100855.47
2022-09-25T21:59:14.975Z,100852.81
2022-09-25T22:01:45.213Z,100848.38
2022-09-25T22:04:16.515Z,100836.97
2022-09-25T22:06:48.427Z,100827.22
2022-09-25T22:09:22.634Z,100828.09
2022-09-25T22:11:53.013Z,100819.31
2022-09-25T22:14:24.048Z,100810.50
2022-09-25T22:16:55.047Z,100803.47
2022-09-25T22:19:26.837Z,100800.88
2022-09-25T22:21:58.475Z,100808.78
2022-09-25T22:24:31.108Z,100799.06
2022-09-25T22:27:00.813Z,100781.44
2022-09-25T22:29:30.553Z,100784.94
2022-09-25T22:32:01.851Z,100776.09
2022-09-25T22:34:33.065Z,100775.22
2022-09-25T22:37:02.812Z,100762.00
2022-09-25T22:39:35.129Z,100753.25
2022-09-25T22:42:04.871Z,100753.22
2022-09-25T22:44:34.693Z,100746.22
2022-09-25T22:47:04.470Z,100735.59
2022-09-25T22:49:34.154Z,100736.53
2022-09-25T22:52:05.384Z,100729.50
2022-09-25T22:54:37.706Z,100723.31
2022-09-25T22:57:07.407Z,100718.91
2022-09-25T22:59:37.138Z,100712.75
2022-09-25T23:02:06.999Z,100705.69
2022-09-25T23:04:36.762Z,100705.69
2022-09-25T23:07:06.511Z,100698.66
2022-09-25T23:09:38.930Z,100688.03
2022-09-25T23:12:08.801Z,100688.88
2022-09-25T23:14:38.486Z,100694.09
2022-09-25T23:17:08.267Z,100679.97
2022-09-25T23:19:38.061Z,100681.72
2022-09-25T23:22:08.105Z,100679.03
2022-09-25T23:24:41.017Z,100672.91
2022-09-25T23:27:10.718Z,100672.00
2022-09-25T23:29:40.429Z,100672.91
2022-09-25T23:32:10.562Z,100660.56
2022-09-25T23:34:40.297Z,100655.25
2022-09-25T23:37:09.954Z,100655.28
2022-09-25T23:39:42.796Z,100647.38
2022-09-25T23:42:12.481Z,100647.34
2022-09-25T23:44:42.228Z,100646.50
2022-09-25T23:47:11.919Z,100630.66
2022-09-25T23:49:41.652Z,100631.53
2022-09-25T23:52:11.656Z,100627.09
2022-09-25T23:54:44.047Z,100628.03
2022-09-25T23:57:15.289Z,100615.66
2022-09-25T23:59:44.977Z,100613.88
